Time;durP1;ratioP1;P1;durP2;ratioP2;P2;SDS_P1;SDS_P2;PMS_P1;PMS_P2;Temp;Humidity;BMP_temperature;BMP_pressure;BME280_temperature;BME280_humidity;BME280_pressure;Samples;Min_cycle;Max_cycle;Signal;HPM_P1;HPM_P2
2021/03/05 00:01:07;;;;;;;12.32;4.03;;;-2.20;99.90;;;;;;5055586;28;20526;-74
2021/03/05 00:03:32;;;;;;;6.10;2.63;;;-2.30;99.90;;;;;;5054846;28;20043;-74
2021/03/05 00:05:58;;;;;;;12.15;2.22;;;-2.30;99.90;;;;;;5053876;28;20037;-75
2021/03/05 00:08:24;;;;;;;11.27;2.60;;;-2.30;99.90;;;;;;5054581;28;20091;-74
2021/03/05 00:10:51;;;;;;;6.82;2.13;;;-2.30;99.90;;;;;;5054664;28;20021;-75
2021/03/05 00:13:16;;;;;;;19.38;2.80;;;-2.30;99.90;;;;;;5054590;28;20477;-74
2021/03/05 00:15:44;;;;;;;7.32;2.28;;;-2.40;99.90;;;;;;5053810;28;20048;-75
2021/03/05 00:18:10;;;;;;;9.25;2.38;;;-2.40;99.90;;;;;;5054382;28;20029;-74
2021/03/05 00:20:40;;;;;;;5.75;2.33;;;-2.40;99.90;;;;;;5067995;28;20033;-75
2021/03/05 00:23:05;;;;;;;6.28;2.38;;;-2.50;99.90;;;;;;5072988;28;20085;-75
2021/03/05 00:25:31;;;;;;;16.25;3.10;;;-2.50;99.90;;;;;;5057445;28;20028;-74
2021/03/05 00:27:57;;;;;;;7.60;2.08;;;-2.50;99.90;;;;;;5054035;28;20029;-75
2021/03/05 00:30:24;;;;;;;5.88;2.08;;;-2.50;99.90;;;;;;5054513;28;20036;-74
2021/03/05 00:32:49;;;;;;;7.60;2.45;;;-2.60;99.90;;;;;;5054135;28;20017;-74
2021/03/05 00:35:17;;;;;;;5.00;1.77;;;-2.90;99.90;;;;;;5053476;28;20025;-75
2021/03/05 00:37:43;;;;;;;9.95;2.33;;;-3.10;99.90;;;;;;5052693;28;20536;-74
2021/03/05 00:40:12;;;;;;;6.28;1.80;;;-3.30;99.90;;;;;;5066662;28;20029;-75
2021/03/05 00:42:40;;;;;;;13.18;2.33;;;-3.50;99.90;;;;;;5072544;28;20104;-75
2021/03/05 00:45:07;;;;;;;15.13;2.65;;;-3.50;99.90;;;;;;5071856;28;20032;-75
2021/03/05 00:47:32;;;;;;;4.72;2.65;;;-3.50;99.90;;;;;;5073859;28;20094;-74
2021/03/05 00:49:58;;;;;;;10.73;2.80;;;-3.40;99.90;;;;;;5072062;28;20048;-75
2021/03/05 00:52:24;;;;;;;4.97;2.17;;;-3.50;99.90;;;;;;5067576;28;20127;-75
2021/03/05 00:54:49;;;;;;;7.80;2.53;;;-3.60;99.90;;;;;;5053638;28;20021;-74
2021/03/05 00:57:15;;;;;;;4.47;1.45;;;-3.70;99.90;;;;;;5053595;28;20443;-74
2021/03/05 00:59:40;;;;;;;8.43;2.60;;;-3.90;99.90;;;;;;5053807;28;20527;-74
2021/03/05 01:02:06;;;;;;;8.60;2.13;;;-4.00;99.90;;;;;;5053350;28;20036;-74
2021/03/05 01:04:31;;;;;;;9.00;2.65;;;-4.10;99.90;;;;;;5068417;28;20032;-74
2021/03/05 01:06:57;;;;;;;10.73;2.30;;;-4.10;99.90;;;;;;5053424;28;20501;-75
2021/03/05 01:09:22;;;;;;;9.48;2.60;;;-4.30;99.90;;;;;;5053762;28;20044;-74
2021/03/05 01:11:48;;;;;;;13.82;1.98;;;-4.30;99.90;;;;;;5053194;28;20025;-75
2021/03/05 01:14:14;;;;;;;10.23;3.13;;;-4.40;99.90;;;;;;5052926;28;20029;-74
2021/03/05 01:16:40;;;;;;;9.77;1.88;;;-4.30;99.90;;;;;;5053228;28;20025;-74
2021/03/05 01:19:07;;;;;;;11.02;2.88;;;-4.10;99.90;;;;;;5053331;28;20117;-74
2021/03/05 01:21:33;;;;;;;6.95;2.00;;;-3.80;99.90;;;;;;5053212;28;20028;-74
2021/03/05 01:23:58;;;;;;;11.27;3.13;;;-3.60;99.90;;;;;;5055946;28;20154;-74
2021/03/05 01:26:24;;;;;;;12.10;2.45;;;-3.60;99.90;;;;;;5051588;28;20025;-74
2021/03/05 01:28:50;;;;;;;8.45;1.85;;;-3.80;99.90;;;;;;5053170;28;20021;-74
2021/03/05 01:31:15;;;;;;;6.03;2.47;;;-3.90;99.90;;;;;;5068449;28;20362;-74
2021/03/05 01:33:42;;;;;;;10.63;2.60;;;-4.10;99.90;;;;;;5052661;28;20126;-75
2021/03/05 01:36:08;;;;;;;4.28;1.75;;;-4.20;99.90;;;;;;5052887;28;20118;-74
2021/03/05 01:38:35;;;;;;;7.60;2.85;;;-4.30;99.90;;;;;;5051644;28;20053;-75
2021/03/05 01:41:00;;;;;;;6.53;2.17;;;-4.40;99.90;;;;;;5052839;28;20024;-75
2021/03/05 01:43:29;;;;;;;4.40;1.83;;;-4.50;99.90;;;;;;5052862;28;20020;-75
2021/03/05 01:45:55;;;;;;;8.93;2.17;;;-4.50;99.90;;;;;;5068907;28;20039;-75
2021/03/05 01:48:21;;;;;;;11.85;2.10;;;-4.60;99.90;;;;;;5064959;28;20028;-74
2021/03/05 01:50:57;;;;;;;6.28;2.05;;;-4.60;99.90;;;;;;5052650;28;20518;-75
2021/03/05 01:53:23;;;;;;;7.28;2.13;;;-4.70;99.90;;;;;;5052713;28;20682;-74
2021/03/05 01:55:49;;;;;;;8.85;2.08;;;-4.80;99.90;;;;;;5052217;28;20080;-75
2021/03/05 01:58:14;;;;;;;8.13;2.85;;;-4.80;99.90;;;;;;5051592;28;20057;-74
2021/03/05 02:00:47;;;;;;;5.00;2.15;;;-4.70;99.90;;;;;;5052509;28;20056;-74
2021/03/05 02:03:13;;;;;;;13.50;2.47;;;-4.50;99.90;;;;;;5052579;28;20029;-75
2021/03/05 02:05:39;;;;;;;4.80;2.17;;;-4.50;99.90;;;;;;5052231;28;20111;-75
2021/03/05 02:08:09;;;;;;;9.10;2.47;;;-4.60;99.90;;;;;;5051315;28;20036;-74
2021/03/05 02:10:35;;;;;;;5.05;1.85;;;-4.70;99.90;;;;;;5052569;28;20033;-75
2021/03/05 02:13:01;;;;;;;11.38;2.55;;;-4.70;99.90;;;;;;5051559;28;20036;-75
2021/03/05 02:15:27;;;;;;;5.82;1.55;;;-4.80;99.90;;;;;;5051744;28;20029;-75
2021/03/05 02:18:05;;;;;;;9.25;1.95;;;-4.90;99.90;;;;;;5052324;28;20036;-75
2021/03/05 02:20:38;;;;;;;5.53;2.08;;;-4.90;99.90;;;;;;5067254;28;20021;-75
2021/03/05 02:23:12;;;;;;;;;;;-4.90;99.90;;;;;;5064483;28;20028;-75
2021/03/05 02:26:15;;;;;;;3.47;1.60;;;-4.90;99.90;;;;;;5069323;28;19952;-75
2021/03/05 02:29:12;;;;;;;6.93;2.22;;;-5.00;99.90;;;;;;5071713;28;20056;-75
2021/03/05 02:31:44;;;;;;;5.10;1.70;;;-5.00;99.90;;;;;;5071896;28;20029;-74
2021/03/05 02:34:17;;;;;;;7.82;1.55;;;-4.90;99.90;;;;;;5050333;28;20037;-75
2021/03/05 02:36:54;;;;;;;;;;;-4.80;99.90;;;;;;5052148;28;20480;-75
2021/03/05 02:39:32;;;;;;;15.95;1.58;;;-4.50;99.90;;;;;;5052061;28;19909;-74
2021/03/05 02:42:01;;;;;;;12.05;2.38;;;-4.20;99.90;;;;;;5051873;28;20021;-75
2021/03/05 02:44:31;;;;;;;10.50;1.67;;;-4.10;99.90;;;;;;5050793;28;20440;-75
2021/03/05 02:47:01;;;;;;;7.95;2.40;;;-4.10;99.90;;;;;;5051826;28;20025;-75
2021/03/05 02:49:30;;;;;;;5.78;2.25;;;-3.90;99.90;;;;;;5054354;28;20485;-75
2021/03/05 02:52:01;;;;;;;15.38;1.85;;;-4.10;99.90;;;;;;5051661;28;20051;-75
2021/03/05 02:54:31;;;;;;;6.55;2.05;;;-4.20;99.90;;;;;;5051258;28;20017;-75
2021/03/05 02:56:58;;;;;;;6.32;1.80;;;-4.30;99.90;;;;;;5050236;28;20028;-75
2021/03/05 02:59:24;;;;;;;14.10;1.98;;;-4.40;99.90;;;;;;5051701;28;20072;-76
2021/03/05 03:01:51;;;;;;;6.15;1.83;;;-4.50;99.90;;;;;;5051423;28;20028;-75
2021/03/05 03:04:20;;;;;;;6.07;1.42;;;-4.40;99.90;;;;;;5050848;28;20070;-75
2021/03/05 03:06:45;;;;;;;7.85;2.10;;;-4.50;99.90;;;;;;5051125;28;20029;-75
2021/03/05 03:09:14;;;;;;;6.55;2.00;;;-4.60;99.90;;;;;;5052341;28;20070;-74
2021/03/05 03:11:42;;;;;;;6.80;1.80;;;-4.70;99.90;;;;;;5051748;28;20025;-75
2021/03/05 03:14:08;;;;;;;2.60;1.60;;;-4.80;99.90;;;;;;5050617;28;20017;-75
2021/03/05 03:16:36;;;;;;;6.90;2.03;;;-4.90;99.90;;;;;;5066682;28;20063;-74
2021/03/05 03:19:04;;;;;;;4.25;1.65;;;-4.90;99.90;;;;;;5051559;28;20031;-75
2021/03/05 03:21:29;;;;;;;15.43;2.80;;;-4.90;99.90;;;;;;5051129;28;20472;-75
2021/03/05 03:23:55;;;;;;;6.47;1.75;;;-5.00;99.90;;;;;;5050903;28;20064;-75
2021/03/05 03:26:22;;;;;;;5.60;1.90;;;-4.90;99.90;;;;;;5055343;28;20040;-75
2021/03/05 03:28:48;;;;;;;3.60;1.88;;;-4.80;99.90;;;;;;5055161;28;20021;-74
2021/03/05 03:31:15;;;;;;;6.63;1.55;;;-4.50;99.90;;;;;;5070813;28;20030;-74
2021/03/05 03:33:41;;;;;;;3.45;1.70;;;-4.40;99.90;;;;;;5074884;28;20055;-75
2021/03/05 03:36:07;;;;;;;7.38;2.38;;;-4.30;99.90;;;;;;5074965;28;20048;-75
2021/03/05 03:38:33;;;;;;;6.22;1.95;;;-4.10;99.90;;;;;;5075023;28;20396;-75
2021/03/05 03:40:59;;;;;;;4.03;1.58;;;-4.20;99.90;;;;;;5054172;28;20029;-75
2021/03/05 03:43:25;;;;;;;7.32;2.30;;;-4.20;99.90;;;;;;5054913;28;20481;-75
2021/03/05 03:45:51;;;;;;;8.65;2.40;;;-4.40;99.90;;;;;;5054061;28;20081;-75
2021/03/05 03:48:17;;;;;;;10.55;2.38;;;-4.30;99.90;;;;;;5052645;28;20028;-75
2021/03/05 03:51:00;;;;;;;6.63;1.85;;;-4.30;99.90;;;;;;5068465;28;20049;-75
2021/03/05 03:53:29;;;;;;;6.18;1.67;;;-4.40;99.90;;;;;;5074936;28;20542;-75
2021/03/05 03:55:56;;;;;;;4.63;1.50;;;-4.50;99.90;;;;;;5053850;28;20040;-75
2021/03/05 03:58:23;;;;;;;4.90;2.60;;;-4.70;99.90;;;;;;5054881;28;20384;-75
2021/03/05 04:00:53;;;;;;;3.95;2.30;;;-4.70;99.90;;;;;;5053782;28;20064;-75
2021/03/05 04:03:23;;;;;;;8.98;1.98;;;-4.70;99.90;;;;;;5054691;28;20032;-75
2021/03/05 04:05:50;;;;;;;11.02;2.90;;;-4.80;99.90;;;;;;5054041;28;20029;-75
2021/03/05 04:08:18;;;;;;;3.95;1.55;;;-4.90;99.90;;;;;;5054621;28;20025;-75
2021/03/05 04:10:45;;;;;;;10.98;2.72;;;-4.80;99.90;;;;;;5070454;28;20032;-75
2021/03/05 04:13:11;;;;;;;10.10;2.58;;;-4.80;99.90;;;;;;5054479;28;20104;-75
2021/03/05 04:15:37;;;;;;;6.15;1.63;;;-4.90;99.90;;;;;;5053937;28;20025;-75
2021/03/05 04:18:03;;;;;;;10.77;2.22;;;-5.00;99.90;;;;;;5052185;28;20403;-75
2021/03/05 04:20:30;;;;;;;6.97;2.00;;;-5.00;99.90;;;;;;5051964;28;20033;-75
2021/03/05 04:22:57;;;;;;;8.45;2.28;;;-5.00;99.90;;;;;;5053185;28;20083;-76
2021/03/05 04:25:23;;;;;;;6.20;2.80;;;-5.00;99.90;;;;;;5052809;28;20032;-75
2021/03/05 04:27:48;;;;;;;6.15;2.00;;;-5.00;99.90;;;;;;5053110;28;20431;-75
2021/03/05 04:30:14;;;;;;;8.55;2.10;;;-5.00;99.90;;;;;;5059718;28;20055;-75
2021/03/05 04:32:41;;;;;;;6.78;1.73;;;-5.00;99.90;;;;;;5071752;28;20021;-75
2021/03/05 04:35:09;;;;;;;7.22;2.25;;;-5.10;99.90;;;;;;5070697;28;20052;-75
2021/03/05 04:37:34;;;;;;;8.50;2.38;;;-5.10;99.90;;;;;;5072977;28;20025;-75
2021/03/05 04:40:00;;;;;;;5.32;1.83;;;-5.20;99.90;;;;;;5060114;28;20033;-75
2021/03/05 04:42:26;;;;;;;8.05;2.60;;;-5.10;99.90;;;;;;5052825;28;20090;-75
2021/03/05 04:44:51;;;;;;;9.85;2.90;;;-5.10;99.90;;;;;;5052237;28;20033;-75
2021/03/05 04:47:17;;;;;;;4.95;1.83;;;-5.10;99.90;;;;;;5052711;28;20029;-75
2021/03/05 04:49:42;;;;;;;6.30;1.90;;;-5.00;99.90;;;;;;5058544;28;20035;-75
2021/03/05 04:52:11;;;;;;;5.60;1.85;;;-5.10;99.90;;;;;;5071464;28;20056;-75
2021/03/05 04:54:36;;;;;;;4.68;1.80;;;-5.10;99.90;;;;;;5063923;28;20096;-75
2021/03/05 04:57:03;;;;;;;6.25;2.25;;;-5.00;99.90;;;;;;5052677;28;20040;-75
2021/03/05 04:59:28;;;;;;;7.35;2.13;;;-5.10;99.90;;;;;;5052916;28;20384;-75
2021/03/05 05:01:54;;;;;;;4.65;2.47;;;-5.10;99.90;;;;;;5052450;28;20028;-75
2021/03/05 05:04:19;;;;;;;8.02;3.47;;;-5.10;99.90;;;;;;5050561;28;20036;-76
2021/03/05 05:06:45;;;;;;;7.80;1.90;;;-5.20;99.90;;;;;;5052725;28;20025;-75
2021/03/05 05:09:10;;;;;;;3.67;1.63;;;-5.20;99.90;;;;;;5056691;28;20020;-75
2021/03/05 05:11:36;;;;;;;5.45;1.63;;;-5.20;99.90;;;;;;5063824;28;20028;-75
2021/03/05 05:14:02;;;;;;;9.45;2.67;;;-5.20;99.90;;;;;;5051830;28;20075;-75
2021/03/05 05:16:28;;;;;;;13.68;2.15;;;-5.30;99.90;;;;;;5030627;28;586785;-76
2021/03/05 05:18:54;;;;;;;5.10;1.83;;;-5.20;99.90;;;;;;5053527;28;20048;-75
2021/03/05 05:21:19;;;;;;;7.15;2.00;;;-5.30;99.90;;;;;;5053514;28;20033;-75
2021/03/05 05:23:45;;;;;;;3.78;2.20;;;-5.20;99.90;;;;;;5052795;28;20040;-75
2021/03/05 05:26:13;;;;;;;11.70;3.10;;;-5.20;99.90;;;;;;5053699;28;20024;-75
2021/03/05 05:28:39;;;;;;;7.95;1.88;;;-5.10;99.90;;;;;;5053157;28;20096;-75
2021/03/05 05:31:04;;;;;;;6.93;2.38;;;-5.20;99.90;;;;;;5053017;28;20060;-75
2021/03/05 05:33:30;;;;;;;4.20;2.10;;;-5.10;99.90;;;;;;5053141;28;20029;-75
2021/03/05 05:35:55;;;;;;;5.07;2.15;;;-5.10;99.90;;;;;;5050596;28;20021;-76
2021/03/05 05:38:21;;;;;;;17.23;2.40;;;-5.10;99.90;;;;;;5053743;28;20033;-75
2021/03/05 05:40:47;;;;;;;11.48;2.53;;;-5.10;99.90;;;;;;5053214;28;20043;-75
2021/03/05 05:43:12;;;;;;;6.80;2.40;;;-5.10;99.90;;;;;;5052900;28;20036;-75
2021/03/05 05:45:38;;;;;;;9.57;2.65;;;-5.10;99.90;;;;;;5052131;28;20504;-76
2021/03/05 05:48:04;;;;;;;11.05;3.00;;;-5.10;99.90;;;;;;5052228;28;20029;-75
2021/03/05 05:50:31;;;;;;;14.88;3.15;;;-5.10;99.90;;;;;;5052687;28;20024;-75
2021/03/05 05:52:59;;;;;;;6.90;2.33;;;-5.10;99.90;;;;;;5052716;28;20025;-75
2021/03/05 05:55:25;;;;;;;9.88;2.85;;;-5.20;99.90;;;;;;5052699;28;20653;-75
2021/03/05 05:57:51;;;;;;;6.88;2.22;;;-5.20;99.90;;;;;;5052610;28;20029;-75
2021/03/05 06:00:17;;;;;;;12.13;2.72;;;-5.30;99.90;;;;;;5067806;28;20029;-75
2021/03/05 06:02:44;;;;;;;9.20;2.60;;;-5.30;99.90;;;;;;5052410;28;20033;-75
2021/03/05 06:05:13;;;;;;;5.18;2.63;;;-5.30;99.90;;;;;;5054410;28;20032;-75
2021/03/05 06:07:40;;;;;;;9.35;3.13;;;-5.30;99.90;;;;;;5052324;28;20029;-76
2021/03/05 06:10:07;;;;;;;7.68;2.90;;;-5.20;99.90;;;;;;5052578;28;20048;-75
2021/03/05 06:12:33;;;;;;;11.38;3.10;;;-5.20;99.90;;;;;;5052257;28;20099;-75
2021/03/05 06:14:58;;;;;;;13.02;4.57;;;-5.10;99.90;;;;;;5051868;28;20025;-75
2021/03/05 06:17:46;;;;;;;18.58;5.22;;;-5.00;99.90;;;;;;5051195;28;20408;-75
2021/03/05 06:20:13;;;;;;;12.75;4.00;;;-4.90;99.90;;;;;;5052260;28;20025;-75
2021/03/05 06:22:39;;;;;;;8.95;3.25;;;-4.80;99.90;;;;;;5052149;28;20443;-75
2021/03/05 06:25:07;;;;;;;4.40;2.20;;;-4.80;99.90;;;;;;5063096;28;20443;-75
2021/03/05 06:27:33;;;;;;;8.00;2.55;;;-4.90;99.90;;;;;;5071952;28;20060;-75
2021/03/05 06:29:59;;;;;;;14.35;4.15;;;-5.00;99.90;;;;;;5071967;28;20052;-75
2021/03/05 06:32:37;;;;;;;10.88;2.80;;;-5.00;99.90;;;;;;5071913;28;20021;-76
2021/03/05 06:35:04;;;;;;;10.98;4.43;;;-5.00;99.90;;;;;;5062414;28;20500;-75
2021/03/05 06:37:42;;;;;;;20.48;4.25;;;-5.00;99.90;;;;;;5051916;28;20033;-75
2021/03/05 06:40:09;;;;;;;15.55;4.13;;;-5.00;99.90;;;;;;5050867;28;20413;-75
2021/03/05 06:42:52;;;;;;;12.52;4.15;;;-5.00;99.90;;;;;;5058568;28;20112;-75
2021/03/05 06:45:20;;;;;;;12.75;4.05;;;-4.90;99.90;;;;;;5080770;28;20040;-75
2021/03/05 06:48:01;;;;;;;5.50;3.30;;;-4.80;99.90;;;;;;5069970;28;20078;-75
2021/03/05 06:50:26;;;;;;;6.88;2.88;;;-4.70;99.90;;;;;;5071328;28;20459;-75
2021/03/05 06:52:52;;;;;;;7.20;2.97;;;-4.50;99.90;;;;;;5070295;28;20024;-75
2021/03/05 06:55:17;;;;;;;21.10;3.83;;;-4.30;99.90;;;;;;5056622;28;20119;-74
2021/03/05 06:57:44;;;;;;;9.20;3.20;;;-4.10;99.90;;;;;;5064491;28;20028;-75
2021/03/05 07:00:22;;;;;;;6.65;3.10;;;-4.00;99.90;;;;;;5071142;28;20066;-75
2021/03/05 07:02:49;;;;;;;19.17;3.88;;;-3.70;99.90;;;;;;5071006;28;20495;-74
2021/03/05 07:05:16;;;;;;;16.17;3.03;;;-3.50;99.90;;;;;;5069430;28;20035;-75
2021/03/05 07:07:48;;;;;;;9.32;2.75;;;-3.40;99.90;;;;;;5070174;28;20017;-74
2021/03/05 07:10:17;;;;;;;26.45;4.38;;;-3.20;99.90;;;;;;5057646;28;20043;-75
2021/03/05 07:13:02;;;;;;;17.85;4.18;;;-3.00;99.90;;;;;;5051087;28;20021;-75
2021/03/05 07:15:27;;;;;;;16.58;4.38;;;-2.80;99.90;;;;;;5049022;28;20033;-75
2021/03/05 07:17:53;;;;;;;19.02;4.60;;;-2.60;99.90;;;;;;5056841;28;20040;-74
2021/03/05 07:20:18;;;;;;;8.48;4.63;;;-2.50;99.90;;;;;;5070975;28;20503;-75
2021/03/05 07:22:48;;;;;;;10.43;4.25;;;-2.30;99.90;;;;;;5071055;28;20092;-75
2021/03/05 07:25:20;;;;;;;13.70;4.32;;;-2.20;99.90;;;;;;5069369;28;20031;-75
2021/03/05 07:27:50;;;;;;;13.95;4.63;;;-2.00;99.90;;;;;;5070888;28;20420;-74
2021/03/05 07:30:19;;;;;;;22.83;5.22;;;-1.80;99.90;;;;;;5071232;28;20027;-75
2021/03/05 07:32:50;;;;;;;13.38;5.15;;;-1.60;99.90;;;;;;5086254;28;20025;-75
2021/03/05 07:35:38;;;;;;;15.52;4.45;;;-1.40;99.90;;;;;;5058069;28;20074;-74
2021/03/05 07:38:07;;;;;;;16.33;4.13;;;-1.20;99.90;;;;;;5050847;28;20025;-74
2021/03/05 07:40:34;;;;;;;15.52;3.60;;;-1.00;99.90;;;;;;5051416;28;20029;-74
2021/03/05 07:43:03;;;;;;;6.88;3.97;;;-0.80;99.90;;;;;;5066970;28;20503;-74
2021/03/05 07:45:29;;;;;;;13.02;4.18;;;-0.60;99.90;;;;;;5069103;28;20123;-74
2021/03/05 07:47:56;;;;;;;8.90;2.67;;;-0.30;99.90;;;;;;5066051;28;20119;-74
2021/03/05 07:50:23;;;;;;;5.80;2.33;;;-0.20;99.90;;;;;;5059257;28;20082;-74
2021/03/05 07:52:49;;;;;;;8.45;2.53;;;0.00;99.90;;;;;;5070465;28;20028;-74
2021/03/05 07:55:33;;;;;;;11.52;2.35;;;0.20;99.90;;;;;;5063795;28;20036;-74
2021/03/05 07:57:59;;;;;;;11.40;2.05;;;0.40;99.90;;;;;;5069659;28;20400;-74
2021/03/05 08:00:48;;;;;;;5.45;2.35;;;0.60;99.90;;;;;;5070762;28;20037;-74
2021/03/05 08:03:14;;;;;;;7.97;2.13;;;0.70;99.90;;;;;;5049146;28;20054;-74
2021/03/05 08:05:42;;;;;;;11.48;2.25;;;0.90;99.90;;;;;;5063299;28;20029;-74
2021/03/05 08:08:18;;;;;;;10.65;1.80;;;1.10;99.90;;;;;;5070747;28;20029;-74
2021/03/05 08:10:54;;;;;;;18.45;1.95;;;1.30;99.90;;;;;;5054626;28;20028;-74
2021/03/05 08:13:46;;;;;;;11.07;2.55;;;1.50;99.90;;;;;;5054521;28;20507;-74
2021/03/05 08:16:30;;;;;;;19.50;4.78;;;1.60;99.90;;;;;;5055807;28;20074;-74
2021/03/05 08:19:05;;;;;;;10.10;3.13;;;1.90;99.90;;;;;;5081783;28;20037;-75
2021/03/05 08:21:57;;;;;;;7.45;2.20;;;2.00;99.90;;;;;;5054921;28;20096;-75
2021/03/05 08:24:31;;;;;;;6.60;1.80;;;2.30;99.90;;;;;;5093883;28;20012;-75
2021/03/05 08:27:04;;;;;;;5.55;1.73;;;2.40;99.90;;;;;;5093052;28;20093;-75
2021/03/05 08:29:57;;;;;;;9.25;2.13;;;2.60;99.90;;;;;;5093121;28;20020;-75
2021/03/05 08:32:35;;;;;;;9.75;3.17;;;2.70;99.90;;;;;;5094311;28;20024;-75
2021/03/05 08:35:29;;;;;;;11.57;2.95;;;2.90;99.90;;;;;;5078029;28;20040;-74
2021/03/05 08:37:58;;;;;;;9.52;1.95;;;3.10;99.90;;;;;;5068147;28;20025;-75
2021/03/05 08:40:48;;;;;;;8.75;2.40;;;3.20;99.90;;;;;;5084808;28;20484;-75
2021/03/05 08:43:27;;;;;;;10.65;4.55;;;3.30;99.90;;;;;;5093287;28;20442;-75
2021/03/05 08:46:00;;;;;;;10.70;3.85;;;3.40;99.90;;;;;;5072009;28;20021;-75
2021/03/05 08:48:40;;;;;;;7.50;1.65;;;3.50;99.90;;;;;;5073878;28;20021;-75
2021/03/05 08:51:08;;;;;;;7.63;2.35;;;3.70;99.90;;;;;;5073515;28;20044;-74
2021/03/05 08:53:45;;;;;;;12.60;1.83;;;3.80;99.90;;;;;;5065816;28;20453;-75
2021/03/05 08:56:19;;;;;;;9.93;2.20;;;3.90;99.90;;;;;;5067849;28;20047;-75
2021/03/05 08:59:04;;;;;;;10.45;1.90;;;4.00;99.90;;;;;;5088905;28;20074;-75
2021/03/05 09:01:38;;;;;;;6.63;2.10;;;4.20;99.90;;;;;;5073266;28;20021;-75
2021/03/05 09:04:16;;;;;;;13.27;1.85;;;4.30;99.90;;;;;;5071803;28;20064;-75
2021/03/05 09:06:53;;;;;;;5.88;2.03;;;4.30;99.90;;;;;;5070249;28;20063;-75
2021/03/05 09:09:23;;;;;;;15.02;1.77;;;4.30;99.90;;;;;;5071763;28;20031;-75
2021/03/05 09:12:14;;;;;;;8.65;2.45;;;4.40;99.90;;;;;;5073387;28;20021;-75
2021/03/05 09:14:42;;;;;;;10.65;2.28;;;4.40;99.90;;;;;;5062824;28;20397;-74
2021/03/05 09:17:09;;;;;;;12.70;5.40;;;4.60;99.90;;;;;;5052082;28;20029;-75
2021/03/05 09:19:43;;;;;;;14.18;5.90;;;4.60;99.90;;;;;;5053452;28;20037;-75
2021/03/05 09:22:11;;;;;;;41.22;28.83;;;4.70;99.90;;;;;;5067606;28;20024;-75
2021/03/05 09:24:47;;;;;;;43.47;26.50;;;4.80;99.90;;;;;;5052458;28;20029;-75
2021/03/05 09:27:16;;;;;;;41.05;25.38;;;4.90;99.90;;;;;;5053128;28;20719;-75
2021/03/05 09:29:42;;;;;;;21.30;15.25;;;4.90;99.90;;;;;;5062683;28;20037;-74
2021/03/05 09:32:07;;;;;;;21.88;10.73;;;4.90;99.90;;;;;;5072953;28;20027;-75
2021/03/05 09:34:33;;;;;;;15.07;5.20;;;5.00;99.90;;;;;;5072283;28;20103;-74
2021/03/05 09:36:59;;;;;;;12.75;3.88;;;5.10;99.90;;;;;;5070991;28;20029;-74
2021/03/05 09:39:24;;;;;;;14.52;2.72;;;5.30;99.90;;;;;;5059254;28;20029;-74
2021/03/05 09:41:50;;;;;;;10.77;2.05;;;5.40;99.90;;;;;;5052669;28;20040;-74
2021/03/05 09:44:15;;;;;;;15.10;2.00;;;5.40;99.90;;;;;;5052632;28;20031;-74
2021/03/05 09:46:41;;;;;;;5.20;1.55;;;5.40;99.90;;;;;;5052503;28;20025;-74
2021/03/05 09:49:21;;;;;;;4.65;1.35;;;5.40;99.90;;;;;;5052880;28;20101;-74
2021/03/05 09:51:47;;;;;;;7.10;1.33;;;5.50;99.90;;;;;;5052677;28;20454;-74
2021/03/05 09:54:12;;;;;;;6.45;1.30;;;5.50;99.90;;;;;;5051920;28;20232;-74
2021/03/05 09:56:43;;;;;;;9.93;1.65;;;5.60;99.90;;;;;;5052420;28;20033;-74
2021/03/05 09:59:10;;;;;;;5.53;1.42;;;5.70;99.90;;;;;;5069374;28;20028;-74
2021/03/05 10:01:39;;;;;;;11.30;1.52;;;5.80;99.90;;;;;;5052571;28;20116;-74
2021/03/05 10:04:05;;;;;;;10.82;1.25;;;5.90;99.90;;;;;;5051619;28;20032;-74
2021/03/05 10:06:31;;;;;;;14.15;1.35;;;6.10;99.90;;;;;;5050805;28;20546;-74
2021/03/05 10:09:06;;;;;;;7.72;1.13;;;6.20;99.90;;;;;;5052576;28;20021;-74
2021/03/05 10:11:37;;;;;;;6.32;1.10;;;6.20;99.90;;;;;;5052104;28;20029;-74
2021/03/05 10:14:05;;;;;;;26.55;8.20;;;6.20;99.90;;;;;;5051427;28;20053;-75
2021/03/05 10:16:35;;;;;;;13.77;3.42;;;6.20;99.90;;;;;;5051627;28;20029;-74
2021/03/05 10:19:16;;;;;;;12.85;2.83;;;6.20;99.90;;;;;;5052085;28;20082;-74
2021/03/05 10:21:46;;;;;;;12.02;2.33;;;6.30;99.90;;;;;;5052120;28;20107;-74
2021/03/05 10:24:14;;;;;;;6.82;1.48;;;6.30;99.90;;;;;;5050218;28;20389;-74
2021/03/05 10:29:25;;;;;;;7.93;1.52;;;6.30;99.90;;;;;;5053068;28;20067;-75
2021/03/05 10:31:54;;;;;;;4.20;1.27;;;6.40;99.90;;;;;;5090058;28;20059;-75
2021/03/05 10:34:22;;;;;;;11.75;2.42;;;6.60;99.90;;;;;;5090797;28;20024;-74
2021/03/05 10:36:50;;;;;;;11.82;1.65;;;6.70;99.90;;;;;;5091872;28;20484;-74
2021/03/05 10:39:16;;;;;;;17.65;1.52;;;6.60;99.90;;;;;;5056468;28;20028;-75
2021/03/05 10:41:52;;;;;;;11.63;1.95;;;6.70;99.90;;;;;;5051583;28;20054;-75
2021/03/05 10:44:18;;;;;;;7.18;1.23;;;7.00;99.90;;;;;;5056472;28;20052;-75
2021/03/05 10:46:44;;;;;;;4.53;1.40;;;7.20;99.90;;;;;;5071579;28;20071;-75
2021/03/05 10:49:09;;;;;;;11.13;1.95;;;7.40;99.90;;;;;;5071648;28;20020;-75
2021/03/05 10:51:35;;;;;;;4.22;1.30;;;7.30;99.90;;;;;;5070249;28;20426;-75
2021/03/05 10:54:00;;;;;;;9.48;1.50;;;7.30;99.90;;;;;;5070904;28;20024;-75
2021/03/05 10:56:26;;;;;;;7.00;1.20;;;7.30;99.90;;;;;;5070555;28;20074;-76
2021/03/05 10:58:53;;;;;;;4.30;1.42;;;7.10;99.90;;;;;;5068252;28;20051;-76
2021/03/05 11:01:19;;;;;;;8.60;1.30;;;6.70;99.90;;;;;;5051412;28;20033;-75
2021/03/05 11:03:45;;;;;;;7.57;1.60;;;6.50;99.90;;;;;;5067607;28;20388;-75
2021/03/05 11:06:10;;;;;;;8.10;1.75;;;6.40;99.90;;;;;;5057489;28;20025;-75
2021/03/05 11:08:36;;;;;;;6.97;1.33;;;6.50;99.90;;;;;;5066601;28;20425;-75
2021/03/05 11:11:01;;;;;;;15.00;2.40;;;6.70;99.90;;;;;;5051208;28;20362;-75
2021/03/05 11:13:27;;;;;;;7.75;1.40;;;6.80;99.90;;;;;;5051393;28;20029;-74
2021/03/05 11:15:52;;;;;;;16.05;2.20;;;6.90;99.90;;;;;;5054126;28;20028;-75
2021/03/05 11:18:18;;;;;;;9.48;2.28;;;7.00;99.90;;;;;;5051412;28;20039;-75
2021/03/05 11:20:43;;;;;;;7.00;1.45;;;7.30;99.90;;;;;;5051338;28;20041;-75
2021/03/05 11:23:09;;;;;;;11.90;2.00;;;7.50;99.90;;;;;;5051036;28;20400;-75
2021/03/05 11:25:34;;;;;;;6.68;1.20;;;7.50;99.90;;;;;;5050796;28;20040;-75
2021/03/05 11:28:00;;;;;;;12.65;1.35;;;7.60;99.90;;;;;;5051582;28;20045;-75
2021/03/05 11:30:26;;;;;;;4.47;1.10;;;7.70;99.90;;;;;;5050704;28;20035;-75
2021/03/05 11:32:51;;;;;;;11.43;1.63;;;7.70;99.90;;;;;;5066491;28;20028;-75
2021/03/05 11:35:18;;;;;;;5.93;1.02;;;7.70;99.90;;;;;;5069367;28;20035;-75
2021/03/05 11:37:43;;;;;;;2.58;0.93;;;7.70;99.90;;;;;;5060762;28;20555;-75
2021/03/05 11:40:09;;;;;;;11.90;2.00;;;7.80;99.90;;;;;;5051191;28;20116;-75
2021/03/05 11:42:35;;;;;;;7.78;2.00;;;7.50;99.90;;;;;;5054442;28;20021;-75
2021/03/05 11:45:04;;;;;;;9.18;1.50;;;7.10;99.90;;;;;;5061301;28;20036;-74
2021/03/05 11:47:31;;;;;;;11.88;1.48;;;6.80;99.90;;;;;;5073251;28;20028;-75
2021/03/05 11:49:57;;;;;;;8.15;1.75;;;6.80;99.90;;;;;;5073921;28;20067;-75
2021/03/05 11:52:22;;;;;;;7.07;1.52;;;6.70;99.90;;;;;;5072721;28;20044;-76
2021/03/05 11:54:48;;;;;;;14.15;1.95;;;7.00;99.90;;;;;;5072257;28;20024;-76
2021/03/05 11:57:14;;;;;;;4.90;1.65;;;7.10;99.90;;;;;;5073831;28;20039;-76
2021/03/05 11:59:39;;;;;;;19.15;1.55;;;7.30;99.90;;;;;;5064361;28;20100;-76
2021/03/05 12:02:05;;;;;;;7.13;1.42;;;7.80;99.90;;;;;;5053492;28;20061;-76
2021/03/05 12:04:30;;;;;;;9.88;1.02;;;7.90;99.90;;;;;;5068750;28;20032;-76
2021/03/05 12:06:56;;;;;;;11.40;1.80;;;8.10;99.90;;;;;;5070658;28;20060;-76
2021/03/05 12:09:21;;;;;;;4.53;1.13;;;7.90;99.90;;;;;;5094007;28;20020;-76
2021/03/05 12:11:47;;;;;;;8.07;1.60;;;8.00;99.90;;;;;;5093608;28;20016;-76
2021/03/05 12:14:12;;;;;;;11.38;2.17;;;8.20;99.90;;;;;;5080766;28;20024;-76
2021/03/05 12:16:38;;;;;;;5.30;1.52;;;8.00;99.90;;;;;;5062295;28;20029;-76
2021/03/05 12:19:04;;;;;;;9.35;1.65;;;7.50;99.90;;;;;;5060880;28;20033;-76
2021/03/05 12:21:29;;;;;;;12.95;1.50;;;7.30;99.90;;;;;;5053943;28;20036;-76
2021/03/05 12:23:55;;;;;;;15.38;1.77;;;7.50;99.90;;;;;;5054002;28;20025;-76
2021/03/05 12:26:20;;;;;;;10.98;1.42;;;7.60;99.90;;;;;;5066999;28;20032;-76
2021/03/05 12:28:47;;;;;;;10.43;1.65;;;7.10;99.90;;;;;;5067307;28;20048;-76
2021/03/05 12:31:12;;;;;;;8.60;1.42;;;7.40;99.90;;;;;;5054212;28;20021;-76
2021/03/05 12:33:38;;;;;;;14.15;1.55;;;7.70;99.90;;;;;;5069376;28;20037;-76
2021/03/05 12:36:04;;;;;;;11.10;1.88;;;7.90;99.90;;;;;;5052404;28;20025;-76
2021/03/05 12:38:29;;;;;;;13.30;1.90;;;7.80;99.90;;;;;;5056640;28;20481;-76
2021/03/05 12:40:55;;;;;;;4.30;1.10;;;7.30;99.90;;;;;;5067649;28;20033;-76
2021/03/05 12:43:21;;;;;;;6.85;1.35;;;7.00;99.90;;;;;;5054063;28;20032;-76
2021/03/05 12:45:47;;;;;;;15.32;2.28;;;6.80;99.90;;;;;;5069092;28;20033;-77
2021/03/05 12:48:13;;;;;;;5.47;1.85;;;7.30;99.90;;;;;;5053817;28;20108;-77
2021/03/05 12:50:38;;;;;;;11.48;1.58;;;7.30;99.90;;;;;;5052260;28;20128;-76
2021/03/05 12:53:04;;;;;;;15.32;1.98;;;6.80;99.90;;;;;;5053829;28;20056;-76
2021/03/05 12:55:29;;;;;;;8.93;1.70;;;6.30;99.90;;;;;;5053130;28;20032;-76
2021/03/05 12:57:55;;;;;;;10.85;1.70;;;6.50;99.90;;;;;;5053388;28;20040;-76